METAR Data
IDs: Format: Raw Decoded Include TAF

Data at: 1159 UTC 24 May 2022

KMDW 241153Z 10009KT 10SM BKN110 BKN250 13/07 A3024 RMK AO2 SLP240 T01280072 10128 20111 50007